createdAt,value
2019-03-27T00:00:01.164Z,90.21
2019-03-27T00:02:35.598Z,90.61
2019-03-27T00:05:11.822Z,91.05
2019-03-27T00:07:44.648Z,91.58
2019-03-27T00:10:24.252Z,91.88
2019-03-27T00:12:59.412Z,92.52
2019-03-27T00:15:32.407Z,93.06
2019-03-27T00:18:05.266Z,93.70
2019-03-27T00:20:41.234Z,94.41
2019-03-27T00:23:14.080Z,95.36
2019-03-27T00:25:48.645Z,95.68
2019-03-27T00:28:25.916Z,96.24
2019-03-27T00:30:59.910Z,96.42
2019-03-27T00:33:39.801Z,96.50
2019-03-27T00:36:12.229Z,96.83
2019-03-27T00:38:45.847Z,97.11
2019-03-27T00:41:37.244Z,97.60
2019-03-27T00:44:10.344Z,98.14
2019-03-27T00:46:43.117Z,98.78
2019-03-27T00:49:15.943Z,98.89
2019-03-27T00:51:48.644Z,98.53
2019-03-27T00:54:22.503Z,98.62
2019-03-27T00:56:55.201Z,98.65
2019-03-27T00:59:27.904Z,99.37
2019-03-27T01:02:00.571Z,99.84
2019-03-27T01:04:33.226Z,100.00
2019-03-27T01:07:06.116Z,100.00
2019-03-27T01:09:39.081Z,100.00
2019-03-27T01:12:11.775Z,100.00
2019-03-27T01:14:44.564Z,100.00
2019-03-27T01:17:17.242Z,100.00
2019-03-27T01:19:50.033Z,100.00
2019-03-27T01:22:22.763Z,100.00
2019-03-27T01:24:55.460Z,100.00
2019-03-27T01:27:28.222Z,100.00
2019-03-27T01:30:00.920Z,100.00
2019-03-27T01:32:33.636Z,100.00
2019-03-27T01:35:06.470Z,100.00
2019-03-27T01:37:39.139Z,100.00
2019-03-27T01:40:13.362Z,100.00
2019-03-27T01:42:46.139Z,100.00
2019-03-27T01:45:18.911Z,100.00
2019-03-27T01:47:52.677Z,100.00
2019-03-27T01:50:25.517Z,100.00
2019-03-27T01:52:58.195Z,100.00
2019-03-27T01:55:30.903Z,100.00
2019-03-27T01:58:03.633Z,100.00
2019-03-27T02:00:36.407Z,100.00
2019-03-27T02:03:09.057Z,100.00
2019-03-27T02:05:41.840Z,100.00
2019-03-27T02:08:14.480Z,100.00
2019-03-27T02:10:47.255Z,100.00
2019-03-27T02:13:19.907Z,100.00
2019-03-27T02:16:05.924Z,100.00
2019-03-27T02:18:26.989Z,100.00
2019-03-27T02:20:59.763Z,100.00
2019-03-27T02:23:32.737Z,100.00
2019-03-27T02:26:05.499Z,100.00
2019-03-27T02:28:38.327Z,100.00
2019-03-27T02:34:58.361Z,100.00
2019-03-27T02:41:38.000Z,100.00
2019-03-27T02:44:10.691Z,100.00
2019-03-27T02:46:43.399Z,100.00
2019-03-27T02:49:16.120Z,100.00
2019-03-27T02:51:48.856Z,100.00
2019-03-27T02:54:21.672Z,100.00
2019-03-27T02:56:54.432Z,100.00
2019-03-27T02:59:27.116Z,100.00
2019-03-27T03:01:59.860Z,100.00
2019-03-27T03:04:33.833Z,100.00
2019-03-27T03:07:06.802Z,100.00
2019-03-27T03:09:39.572Z,100.00
2019-03-27T03:12:12.293Z,100.00
2019-03-27T03:14:45.068Z,100.00
2019-03-27T03:17:17.870Z,100.00
2019-03-27T03:19:50.663Z,100.00
2019-03-27T03:22:23.351Z,100.00
2019-03-27T03:24:56.055Z,100.00
2019-03-27T03:27:28.928Z,100.00
2019-03-27T03:30:01.791Z,100.00
2019-03-27T03:32:35.592Z,100.00
2019-03-27T03:35:08.630Z,100.00
2019-03-27T03:37:41.362Z,100.00
2019-03-27T03:40:16.094Z,100.00
2019-03-27T03:42:48.870Z,100.00
2019-03-27T03:45:21.648Z,100.00
2019-03-27T03:47:54.358Z,100.00
2019-03-27T03:50:44.777Z,100.00
2019-03-27T03:53:17.780Z,100.00
2019-03-27T03:55:51.628Z,100.00
2019-03-27T03:58:27.092Z,100.00
2019-03-27T04:01:02.047Z,100.00
2019-03-27T04:03:37.362Z,100.00
2019-03-27T04:06:10.034Z,100.00
2019-03-27T04:08:42.852Z,100.00
2019-03-27T04:11:15.652Z,100.00
2019-03-27T04:13:48.417Z,100.00
2019-03-27T04:16:21.150Z,100.00
2019-03-27T04:18:53.877Z,100.00
2019-03-27T04:21:27.092Z,100.00
2019-03-27T04:24:00.069Z,100.00
2019-03-27T04:26:33.984Z,100.00
2019-03-27T04:29:06.632Z,100.00
2019-03-27T04:31:39.754Z,100.00
2019-03-27T04:34:12.522Z,100.00
2019-03-27T04:36:45.316Z,100.00
2019-03-27T04:39:17.968Z,100.00
2019-03-27T04:41:50.679Z,100.00
2019-03-27T04:44:23.379Z,100.00
2019-03-27T04:46:56.174Z,100.00
2019-03-27T04:49:28.907Z,100.00
2019-03-27T04:52:01.657Z,100.00
2019-03-27T04:54:34.391Z,100.00
2019-03-27T04:57:08.082Z,100.00
2019-03-27T04:59:40.738Z,100.00
2019-03-27T05:02:13.438Z,100.00
2019-03-27T05:04:47.127Z,100.00
2019-03-27T05:07:22.624Z,100.00
2019-03-27T05:09:57.574Z,100.00
2019-03-27T05:12:30.602Z,100.00
2019-03-27T05:15:05.038Z,100.00
2019-03-27T05:17:45.644Z,100.00
2019-03-27T05:20:16.237Z,100.00
2019-03-27T05:22:49.490Z,100.00
2019-03-27T05:25:42.099Z,100.00
2019-03-27T05:28:15.979Z,100.00
2019-03-27T05:30:54.819Z,100.00
2019-03-27T05:33:32.851Z,100.00
2019-03-27T05:36:13.376Z,100.00
2019-03-27T05:38:47.287Z,100.00
2019-03-27T05:41:25.110Z,100.00
2019-03-27T05:43:58.391Z,100.00
2019-03-27T05:46:32.416Z,100.00
2019-03-27T05:49:07.963Z,100.00
2019-03-27T05:51:42.976Z,100.00
2019-03-27T05:54:15.979Z,100.00
2019-03-27T05:56:49.033Z,100.00
2019-03-27T05:59:21.803Z,100.00
2019-03-27T06:01:54.716Z,100.00
2019-03-27T06:04:27.407Z,100.00
2019-03-27T06:07:00.126Z,100.00
2019-03-27T06:09:33.949Z,100.00
2019-03-27T06:12:06.686Z,100.00
2019-03-27T06:14:39.353Z,96.85
2019-03-27T06:17:12.031Z,99.31
2019-03-27T06:19:44.761Z,96.61
2019-03-27T06:22:17.468Z,93.82
2019-03-27T06:24:50.213Z,91.41
2019-03-27T06:27:22.942Z,89.85
2019-03-27T06:29:55.633Z,86.08
2019-03-27T06:32:28.350Z,87.15
2019-03-27T06:35:01.245Z,87.19
2019-03-27T06:37:34.045Z,86.73
2019-03-27T06:40:09.505Z,85.65
2019-03-27T06:42:42.270Z,82.45
2019-03-27T06:45:15.549Z,82.02
2019-03-27T06:47:48.218Z,81.79
2019-03-27T06:50:20.991Z,81.55
2019-03-27T06:52:53.787Z,80.98
2019-03-27T06:55:26.741Z,80.33
2019-03-27T06:58:00.005Z,79.21
2019-03-27T07:00:39.754Z,77.74
2019-03-27T07:03:12.471Z,76.39
2019-03-27T07:05:45.214Z,76.36
2019-03-27T07:08:17.937Z,75.41
2019-03-27T07:10:50.753Z,74.04
2019-03-27T07:13:23.493Z,73.23
2019-03-27T07:15:56.146Z,73.01
2019-03-27T07:18:39.458Z,72.17
2019-03-27T07:21:03.450Z,72.76
2019-03-27T07:23:36.313Z,74.66
2019-03-27T07:26:08.977Z,75.58
2019-03-27T07:28:41.763Z,76.41
2019-03-27T07:31:14.450Z,75.75
2019-03-27T07:33:47.116Z,74.71
2019-03-27T07:36:19.797Z,75.30
2019-03-27T07:38:52.560Z,75.80
2019-03-27T07:41:25.291Z,75.61
2019-03-27T07:43:58.041Z,75.37
2019-03-27T07:46:30.790Z,74.96
2019-03-27T07:49:03.467Z,74.56
2019-03-27T07:51:36.148Z,74.52
2019-03-27T07:54:08.909Z,74.78
2019-03-27T07:56:41.631Z,74.40
2019-03-27T07:59:14.340Z,74.64
2019-03-27T08:01:47.013Z,74.63
2019-03-27T08:04:19.674Z,74.32
2019-03-27T08:06:52.387Z,73.78
2019-03-27T08:09:25.163Z,73.34
2019-03-27T08:11:57.891Z,73.51
2019-03-27T08:14:30.609Z,72.79
2019-03-27T08:17:03.405Z,73.36
2019-03-27T08:19:36.129Z,73.97
2019-03-27T08:22:08.893Z,74.19
2019-03-27T08:24:41.575Z,75.01
2019-03-27T08:27:14.624Z,75.80
2019-03-27T08:29:47.575Z,75.75
2019-03-27T08:32:20.642Z,75.69
2019-03-27T08:34:53.529Z,74.91
2019-03-27T08:37:26.636Z,74.24
2019-03-27T08:39:59.440Z,74.46
2019-03-27T08:42:32.095Z,75.29
2019-03-27T08:45:05.020Z,75.79
2019-03-27T08:47:37.744Z,76.67
2019-03-27T08:50:13.649Z,76.66
2019-03-27T08:52:46.400Z,76.57
2019-03-27T08:55:19.172Z,75.45
2019-03-27T08:57:52.052Z,75.03
2019-03-27T09:00:47.589Z,74.81
2019-03-27T09:03:20.805Z,74.52
2019-03-27T09:05:53.488Z,75.96
2019-03-27T09:08:26.142Z,76.84
2019-03-27T09:10:58.877Z,76.89
2019-03-27T09:13:31.690Z,77.53
2019-03-27T09:16:04.465Z,78.08
2019-03-27T09:18:37.263Z,78.53
2019-03-27T09:21:11.200Z,79.35
2019-03-27T09:23:45.690Z,79.09
2019-03-27T09:26:18.604Z,80.00
2019-03-27T09:28:51.313Z,80.36
2019-03-27T09:31:23.972Z,80.15
2019-03-27T09:33:56.756Z,80.18
2019-03-27T09:36:29.393Z,80.26
2019-03-27T09:39:02.148Z,80.69
2019-03-27T09:41:35.230Z,80.67
2019-03-27T09:44:07.894Z,80.60
2019-03-27T09:46:40.617Z,79.90
2019-03-27T09:49:13.402Z,76.60
2019-03-27T09:51:46.058Z,75.78
2019-03-27T09:54:18.773Z,74.94
2019-03-27T09:56:51.419Z,74.06
2019-03-27T09:59:24.108Z,75.52
2019-03-27T10:01:56.769Z,74.05
2019-03-27T10:04:29.481Z,74.01
2019-03-27T10:07:02.114Z,74.26
2019-03-27T10:09:34.838Z,74.54
2019-03-27T10:12:09.220Z,72.29
2019-03-27T10:14:42.030Z,71.39
2019-03-27T10:17:14.754Z,72.06
2019-03-27T10:20:02.757Z,70.95
2019-03-27T10:22:24.625Z,69.60
2019-03-27T10:24:57.327Z,67.76
2019-03-27T10:27:30.022Z,67.57
2019-03-27T10:30:02.761Z,69.87
2019-03-27T10:32:35.795Z,71.28
2019-03-27T10:35:09.081Z,72.66
2019-03-27T10:37:45.602Z,73.48
2019-03-27T10:40:18.133Z,73.81
2019-03-27T10:42:50.936Z,73.41
2019-03-27T10:45:23.753Z,72.99
2019-03-27T10:47:59.034Z,71.81
2019-03-27T10:50:32.083Z,69.92
2019-03-27T10:53:05.123Z,68.09
2019-03-27T10:55:39.173Z,68.96
2019-03-27T10:58:16.032Z,70.12
2019-03-27T11:00:49.207Z,68.64
2019-03-27T11:03:24.875Z,65.54
2019-03-27T11:06:00.993Z,65.33
2019-03-27T11:08:35.461Z,66.57
2019-03-27T11:11:11.695Z,66.42
2019-03-27T11:13:46.235Z,64.66
2019-03-27T11:16:21.179Z,63.66
2019-03-27T11:18:54.295Z,63.60
2019-03-27T11:21:27.283Z,63.04
2019-03-27T11:24:00.533Z,62.49
2019-03-27T11:26:33.407Z,62.66
2019-03-27T11:29:06.552Z,61.84
2019-03-27T11:31:39.369Z,60.77
2019-03-27T11:34:12.525Z,60.53
2019-03-27T11:36:45.403Z,60.91
2019-03-27T11:39:18.230Z,61.65
2019-03-27T11:41:51.085Z,62.14
2019-03-27T11:44:24.795Z,61.51
2019-03-27T11:47:01.079Z,61.17
2019-03-27T11:49:35.175Z,62.37
2019-03-27T11:52:08.335Z,63.39
2019-03-27T11:54:53.668Z,63.98
2019-03-27T11:57:29.928Z,63.46
2019-03-27T12:00:03.462Z,62.26
2019-03-27T12:02:40.232Z,62.93
2019-03-27T12:05:14.360Z,63.08
2019-03-27T12:07:49.639Z,62.52
2019-03-27T12:10:23.851Z,61.27
2019-03-27T12:12:57.083Z,61.74
2019-03-27T12:15:45.700Z,61.89
2019-03-27T12:18:20.708Z,62.45
2019-03-27T12:21:01.939Z,61.84
2019-03-27T12:23:40.998Z,61.49
2019-03-27T12:26:27.083Z,59.95
2019-03-27T12:29:00.749Z,59.42
2019-03-27T12:31:42.563Z,60.19
2019-03-27T12:34:15.925Z,59.98
2019-03-27T12:36:49.202Z,60.89
2019-03-27T12:39:22.442Z,60.11
2019-03-27T12:41:58.402Z,58.48
2019-03-27T12:44:33.132Z,57.11
2019-03-27T12:47:06.006Z,56.52
2019-03-27T12:49:38.954Z,56.05
2019-03-27T12:52:12.096Z,56.34
2019-03-27T12:54:45.388Z,55.82
2019-03-27T12:57:18.410Z,57.24
2019-03-27T12:59:53.593Z,57.28
2019-03-27T13:02:26.474Z,58.15
2019-03-27T13:05:04.378Z,58.60
2019-03-27T13:07:49.374Z,59.45
2019-03-27T13:10:15.250Z,60.11
2019-03-27T13:12:48.039Z,60.68
2019-03-27T13:15:20.986Z,59.66
2019-03-27T13:17:54.951Z,59.72
2019-03-27T13:20:27.717Z,59.89
2019-03-27T13:23:00.663Z,59.09
2019-03-27T13:25:33.550Z,58.49
2019-03-27T13:28:14.398Z,57.33
2019-03-27T13:30:47.630Z,57.12
2019-03-27T13:33:20.798Z,56.62
2019-03-27T13:35:55.601Z,56.91
2019-03-27T13:38:28.838Z,57.06
2019-03-27T13:41:02.158Z,57.31
2019-03-27T13:43:35.463Z,57.75
2019-03-27T13:46:08.871Z,58.32
2019-03-27T13:48:42.063Z,57.88
2019-03-27T13:51:15.237Z,57.60
2019-03-27T13:53:48.731Z,58.27
2019-03-27T13:56:22.019Z,58.46
2019-03-27T13:58:56.103Z,58.47
2019-03-27T14:01:29.891Z,58.64
2019-03-27T14:04:07.269Z,58.17
2019-03-27T14:06:40.594Z,58.48
2019-03-27T14:09:14.130Z,59.15
2019-03-27T14:11:47.550Z,59.90
2019-03-27T14:14:20.936Z,59.59
2019-03-27T14:17:07.442Z,59.50
2019-03-27T14:19:46.117Z,60.04
2019-03-27T14:22:21.974Z,59.26
2019-03-27T14:24:55.256Z,59.03
2019-03-27T14:27:29.922Z,59.66
2019-03-27T14:30:13.569Z,59.64
2019-03-27T14:32:46.784Z,60.06
2019-03-27T14:35:19.897Z,59.55
2019-03-27T14:37:52.748Z,60.38
2019-03-27T14:40:25.679Z,61.02
2019-03-27T14:42:58.764Z,61.15
2019-03-27T14:45:31.660Z,61.43
2019-03-27T14:48:05.638Z,61.47
2019-03-27T14:50:38.646Z,61.53
2019-03-27T14:53:12.036Z,61.69
2019-03-27T14:55:44.841Z,61.55
2019-03-27T14:58:17.769Z,61.76
2019-03-27T15:00:51.011Z,61.09
2019-03-27T15:03:23.919Z,61.15
2019-03-27T15:05:56.748Z,61.35
2019-03-27T15:08:32.868Z,61.37
2019-03-27T15:11:08.138Z,61.17
2019-03-27T15:13:44.013Z,61.38
2019-03-27T15:16:16.805Z,61.71
2019-03-27T15:19:10.835Z,61.89
2019-03-27T15:21:53.735Z,61.97
2019-03-27T15:24:29.944Z,62.79
2019-03-27T15:27:07.593Z,62.82
2019-03-27T15:29:49.821Z,63.30
2019-03-27T15:32:28.970Z,63.45
2019-03-27T15:35:03.594Z,63.27
2019-03-27T15:37:53.398Z,63.68
2019-03-27T15:40:46.958Z,62.83
2019-03-27T15:43:19.991Z,63.38
2019-03-27T15:45:52.941Z,63.90
2019-03-27T15:53:31.909Z,63.83
2019-03-27T15:57:32.359Z,63.75
2019-03-27T16:00:40.239Z,64.01
2019-03-27T16:04:11.848Z,64.16
2019-03-27T16:07:26.823Z,64.18
2019-03-27T16:14:06.722Z,64.94
2019-03-27T16:17:27.649Z,65.48
2019-03-27T16:20:36.077Z,66.33
2019-03-27T16:26:38.413Z,66.20
2019-03-27T16:29:36.737Z,66.35
2019-03-27T16:34:36.034Z,66.48
2019-03-27T16:36:27.067Z,66.84
2019-03-27T16:39:30.983Z,67.20
2019-03-27T16:42:55.578Z,67.55
2019-03-27T16:45:33.851Z,67.56
2019-03-27T16:48:24.670Z,67.66
2019-03-27T16:50:54.208Z,68.01
2019-03-27T16:54:15.614Z,68.05
2019-03-27T16:57:37.732Z,68.35
2019-03-27T17:04:03.345Z,67.80
2019-03-27T17:12:11.698Z,68.21
2019-03-27T17:15:27.440Z,69.44
2019-03-27T17:18:24.392Z,69.70
2019-03-27T17:25:21.817Z,69.82
2019-03-27T17:28:05.197Z,69.58
2019-03-27T17:30:59.733Z,69.99
2019-03-27T17:33:33.063Z,70.27
2019-03-27T17:40:09.029Z,70.79
2019-03-27T17:43:06.536Z,70.24
2019-03-27T17:45:41.492Z,71.04
2019-03-27T17:48:32.185Z,71.51
2019-03-27T17:51:22.244Z,71.73
2019-03-27T18:04:07.365Z,72.34
2019-03-27T18:06:49.396Z,72.90
2019-03-27T18:09:52.284Z,73.38
2019-03-27T18:12:50.164Z,73.34
2019-03-27T18:16:34.951Z,73.25
2019-03-27T18:20:47.153Z,74.21
2019-03-27T18:24:05.237Z,74.42
2019-03-27T18:27:08.122Z,74.79
2019-03-27T18:29:48.643Z,75.82
2019-03-27T18:33:07.484Z,76.09
2019-03-27T18:35:44.481Z,76.56
2019-03-27T18:39:07.621Z,77.32
2019-03-27T18:41:48.164Z,77.89
2019-03-27T21:09:10.662Z,85.12
2019-03-27T21:11:46.595Z,85.07
2019-03-27T21:14:21.414Z,84.88
2019-03-27T21:16:54.271Z,84.62
2019-03-27T21:19:27.262Z,84.59
2019-03-27T21:22:01.649Z,84.82
2019-03-27T21:24:34.498Z,84.78
2019-03-27T21:27:09.716Z,84.62
2019-03-27T21:29:42.561Z,84.52
2019-03-27T21:32:16.372Z,84.49
2019-03-27T21:34:51.642Z,84.37
2019-03-27T21:37:24.532Z,84.19
2019-03-27T21:39:57.423Z,83.93
2019-03-27T21:42:30.244Z,84.17
2019-03-27T21:45:03.207Z,84.38
2019-03-27T21:47:36.319Z,84.62
2019-03-27T21:50:17.282Z,84.54
2019-03-27T21:53:00.389Z,84.33
2019-03-27T21:55:41.862Z,84.62
2019-03-27T21:58:03.122Z,84.35
2019-03-27T22:00:42.770Z,84.32
2019-03-27T22:03:15.696Z,84.38
2019-03-27T22:05:48.534Z,84.04
2019-03-27T22:08:21.429Z,84.08
2019-03-27T22:10:54.091Z,83.93
2019-03-27T22:13:26.807Z,83.96
2019-03-27T22:15:59.441Z,83.77
2019-03-27T22:18:32.256Z,83.91
2019-03-27T22:21:05.177Z,83.91
2019-03-27T22:23:38.266Z,83.84
2019-03-27T22:26:10.945Z,83.72
2019-03-27T22:28:43.937Z,83.69
2019-03-27T22:31:16.773Z,84.07
2019-03-27T22:33:49.566Z,83.74
2019-03-27T22:36:22.626Z,83.82
2019-03-27T22:38:55.521Z,83.65
2019-03-27T22:41:28.213Z,83.19
2019-03-27T22:44:00.938Z,83.03
2019-03-27T22:46:34.831Z,83.17
2019-03-27T22:49:07.528Z,82.63
2019-03-27T22:51:40.460Z,82.51
2019-03-27T22:54:13.155Z,82.82
2019-03-27T22:56:45.845Z,82.52
2019-03-27T22:59:18.653Z,82.19
2019-03-27T23:01:51.365Z,82.17
2019-03-27T23:04:24.533Z,82.82
2019-03-27T23:06:57.259Z,83.02
2019-03-27T23:09:29.905Z,83.38
2019-03-27T23:12:02.667Z,83.48
2019-03-27T23:14:35.353Z,83.86
2019-03-27T23:17:08.113Z,84.66
2019-03-27T23:19:40.877Z,84.53
2019-03-27T23:22:13.630Z,84.91
2019-03-27T23:24:46.441Z,85.01
2019-03-27T23:27:19.245Z,85.06
2019-03-27T23:29:52.069Z,85.41
2019-03-27T23:32:24.961Z,84.89
2019-03-27T23:34:57.754Z,84.99
2019-03-27T23:37:31.565Z,83.18
2019-03-27T23:40:05.189Z,82.57
2019-03-27T23:42:37.973Z,82.19
2019-03-27T23:45:11.793Z,81.82
2019-03-27T23:47:44.748Z,81.84
2019-03-27T23:50:17.549Z,82.61
2019-03-27T23:52:50.212Z,82.80
2019-03-27T23:55:22.925Z,83.05
2019-03-27T23:57:55.629Z,83.22
